sensor_id;sensor_type;location;lat;lon;timestamp;P1;durP1;ratioP1;P2;durP2;ratioP2
27889;SDS011;15238;49.082;9.102;2023-06-14T00:00:23;5.72;;;3.25;;
27889;SDS011;15238;49.082;9.102;2023-06-14T00:02:24;5.40;;;2.97;;
27889;SDS011;15238;49.082;9.102;2023-06-14T00:04:25;6.78;;;3.08;;
27889;SDS011;15238;49.082;9.102;2023-06-14T00:06:25;5.15;;;3.20;;
27889;SDS011;15238;49.082;9.102;2023-06-14T00:08:26;7.15;;;3.25;;
27889;SDS011;15238;49.082;9.102;2023-06-14T00:10:27;6.65;;;3.40;;
27889;SDS011;15238;49.082;9.102;2023-06-14T00:12:31;5.10;;;3.00;;
27889;SDS011;15238;49.082;9.102;2023-06-14T00:14:31;5.72;;;3.28;;
27889;SDS011;15238;49.082;9.102;2023-06-14T00:16:32;11.45;;;3.78;;
27889;SDS011;15238;49.082;9.102;2023-06-14T00:18:35;6.38;;;3.13;;
27889;SDS011;15238;49.082;9.102;2023-06-14T00:20:36;6.40;;;3.53;;
27889;SDS011;15238;49.082;9.102;2023-06-14T00:22:37;8.93;;;2.90;;
27889;SDS011;15238;49.082;9.102;2023-06-14T00:24:38;3.65;;;3.22;;
27889;SDS011;15238;49.082;9.102;2023-06-14T00:26:39;8.77;;;3.30;;
27889;SDS011;15238;49.082;9.102;2023-06-14T00:28:39;6.60;;;3.15;;
27889;SDS011;15238;49.082;9.102;2023-06-14T00:30:41;6.45;;;3.10;;
27889;SDS011;15238;49.082;9.102;2023-06-14T00:32:44;5.82;;;3.20;;
27889;SDS011;15238;49.082;9.102;2023-06-14T00:34:45;5.00;;;3.20;;
27889;SDS011;15238;49.082;9.102;2023-06-14T00:36:46;7.93;;;3.05;;
27889;SDS011;15238;49.082;9.102;2023-06-14T00:38:46;5.88;;;2.95;;
27889;SDS011;15238;49.082;9.102;2023-06-14T00:40:47;5.82;;;3.67;;
27889;SDS011;15238;49.082;9.102;2023-06-14T00:42:47;6.32;;;3.50;;
27889;SDS011;15238;49.082;9.102;2023-06-14T00:44:48;6.50;;;3.22;;
27889;SDS011;15238;49.082;9.102;2023-06-14T00:46:48;7.63;;;2.90;;
27889;SDS011;15238;49.082;9.102;2023-06-14T00:48:49;5.53;;;3.30;;
27889;SDS011;15238;49.082;9.102;2023-06-14T00:50:50;8.52;;;3.65;;
27889;SDS011;15238;49.082;9.102;2023-06-14T00:52:52;5.53;;;3.20;;
27889;SDS011;15238;49.082;9.102;2023-06-14T00:54:53;4.78;;;2.90;;
27889;SDS011;15238;49.082;9.102;2023-06-14T00:56:53;9.15;;;3.42;;
27889;SDS011;15238;49.082;9.102;2023-06-14T00:58:54;6.63;;;3.30;;
27889;SDS011;15238;49.082;9.102;2023-06-14T01:00:56;5.85;;;3.33;;
27889;SDS011;15238;49.082;9.102;2023-06-14T01:02:57;7.97;;;3.47;;
27889;SDS011;15238;49.082;9.102;2023-06-14T01:04:58;6.25;;;3.40;;
27889;SDS011;15238;49.082;9.102;2023-06-14T01:11:22;4.45;;;3.35;;
27889;SDS011;15238;49.082;9.102;2023-06-14T01:13:34;5.30;;;3.10;;
27889;SDS011;15238;49.082;9.102;2023-06-14T01:15:36;5.88;;;3.20;;
27889;SDS011;15238;49.082;9.102;2023-06-14T01:17:38;9.90;;;3.33;;
27889;SDS011;15238;49.082;9.102;2023-06-14T01:19:43;5.00;;;3.00;;
27889;SDS011;15238;49.082;9.102;2023-06-14T01:21:45;5.97;;;3.15;;
27889;SDS011;15238;49.082;9.102;2023-06-14T01:23:46;5.47;;;3.17;;
27889;SDS011;15238;49.082;9.102;2023-06-14T01:25:52;3.97;;;2.92;;
27889;SDS011;15238;49.082;9.102;2023-06-14T01:27:54;5.40;;;3.10;;
27889;SDS011;15238;49.082;9.102;2023-06-14T01:29:58;6.70;;;3.13;;
27889;SDS011;15238;49.082;9.102;2023-06-14T01:31:59;5.05;;;2.83;;
27889;SDS011;15238;49.082;9.102;2023-06-14T01:34:01;5.25;;;3.17;;
27889;SDS011;15238;49.082;9.102;2023-06-14T01:36:01;7.43;;;3.45;;
27889;SDS011;15238;49.082;9.102;2023-06-14T01:38:03;8.38;;;3.88;;
27889;SDS011;15238;49.082;9.102;2023-06-14T01:40:06;3.78;;;3.03;;
27889;SDS011;15238;49.082;9.102;2023-06-14T01:42:08;4.90;;;3.47;;
27889;SDS011;15238;49.082;9.102;2023-06-14T01:44:12;5.45;;;3.25;;
27889;SDS011;15238;49.082;9.102;2023-06-14T01:46:14;5.45;;;3.45;;
27889;SDS011;15238;49.082;9.102;2023-06-14T01:48:15;3.92;;;2.90;;
27889;SDS011;15238;49.082;9.102;2023-06-14T01:50:18;5.40;;;3.25;;
27889;SDS011;15238;49.082;9.102;2023-06-14T01:52:20;6.75;;;3.35;;
27889;SDS011;15238;49.082;9.102;2023-06-14T01:54:22;4.32;;;3.45;;
27889;SDS011;15238;49.082;9.102;2023-06-14T01:56:22;5.70;;;3.42;;
27889;SDS011;15238;49.082;9.102;2023-06-14T01:58:23;4.75;;;3.83;;
27889;SDS011;15238;49.082;9.102;2023-06-14T02:00:24;10.02;;;3.22;;
27889;SDS011;15238;49.082;9.102;2023-06-14T02:02:25;4.78;;;3.13;;
27889;SDS011;15238;49.082;9.102;2023-06-14T02:04:25;5.53;;;3.35;;
27889;SDS011;15238;49.082;9.102;2023-06-14T02:06:26;3.55;;;2.83;;
27889;SDS011;15238;49.082;9.102;2023-06-14T02:08:27;4.80;;;3.30;;
27889;SDS011;15238;49.082;9.102;2023-06-14T02:10:28;9.93;;;3.55;;
27889;SDS011;15238;49.082;9.102;2023-06-14T02:12:29;6.40;;;3.47;;
27889;SDS011;15238;49.082;9.102;2023-06-14T02:14:29;9.13;;;3.47;;
27889;SDS011;15238;49.082;9.102;2023-06-14T02:16:30;9.10;;;3.38;;
27889;SDS011;15238;49.082;9.102;2023-06-14T02:18:30;6.88;;;3.80;;
27889;SDS011;15238;49.082;9.102;2023-06-14T02:20:32;5.68;;;3.72;;
27889;SDS011;15238;49.082;9.102;2023-06-14T02:22:32;7.30;;;4.05;;
27889;SDS011;15238;49.082;9.102;2023-06-14T02:24:33;5.35;;;3.60;;
27889;SDS011;15238;49.082;9.102;2023-06-14T02:26:33;5.95;;;3.55;;
27889;SDS011;15238;49.082;9.102;2023-06-14T02:28:34;4.90;;;3.90;;
27889;SDS011;15238;49.082;9.102;2023-06-14T02:30:35;5.53;;;3.65;;
27889;SDS011;15238;49.082;9.102;2023-06-14T02:32:36;7.10;;;4.00;;
27889;SDS011;15238;49.082;9.102;2023-06-14T02:34:36;6.40;;;3.55;;
27889;SDS011;15238;49.082;9.102;2023-06-14T02:36:37;5.57;;;3.97;;
27889;SDS011;15238;49.082;9.102;2023-06-14T02:38:41;7.13;;;3.78;;
27889;SDS011;15238;49.082;9.102;2023-06-14T02:40:42;5.45;;;3.78;;
27889;SDS011;15238;49.082;9.102;2023-06-14T02:42:42;7.45;;;3.53;;
27889;SDS011;15238;49.082;9.102;2023-06-14T02:44:43;5.57;;;3.75;;
27889;SDS011;15238;49.082;9.102;2023-06-14T02:46:45;5.60;;;3.28;;
27889;SDS011;15238;49.082;9.102;2023-06-14T02:48:46;6.28;;;4.20;;
27889;SDS011;15238;49.082;9.102;2023-06-14T02:50:46;5.07;;;3.42;;
27889;SDS011;15238;49.082;9.102;2023-06-14T02:52:47;8.15;;;4.22;;
27889;SDS011;15238;49.082;9.102;2023-06-14T02:54:47;8.00;;;3.85;;
27889;SDS011;15238;49.082;9.102;2023-06-14T02:56:48;4.78;;;3.65;;
27889;SDS011;15238;49.082;9.102;2023-06-14T02:58:48;6.68;;;4.43;;
27889;SDS011;15238;49.082;9.102;2023-06-14T03:00:49;5.85;;;3.60;;
27889;SDS011;15238;49.082;9.102;2023-06-14T03:02:49;4.78;;;4.05;;
27889;SDS011;15238;49.082;9.102;2023-06-14T03:04:51;12.20;;;4.05;;
27889;SDS011;15238;49.082;9.102;2023-06-14T03:06:52;6.40;;;3.80;;
27889;SDS011;15238;49.082;9.102;2023-06-14T03:08:53;7.30;;;3.60;;
27889;SDS011;15238;49.082;9.102;2023-06-14T03:10:54;10.35;;;4.72;;
27889;SDS011;15238;49.082;9.102;2023-06-14T03:12:56;6.85;;;4.20;;
27889;SDS011;15238;49.082;9.102;2023-06-14T03:14:56;9.88;;;4.15;;
27889;SDS011;15238;49.082;9.102;2023-06-14T03:16:57;6.65;;;4.10;;
27889;SDS011;15238;49.082;9.102;2023-06-14T03:18:57;6.75;;;4.18;;
27889;SDS011;15238;49.082;9.102;2023-06-14T03:20:58;6.70;;;4.50;;
27889;SDS011;15238;49.082;9.102;2023-06-14T03:22:59;6.00;;;4.53;;
27889;SDS011;15238;49.082;9.102;2023-06-14T03:25:01;6.43;;;4.20;;
27889;SDS011;15238;49.082;9.102;2023-06-14T03:27:04;8.90;;;4.43;;
27889;SDS011;15238;49.082;9.102;2023-06-14T03:29:05;7.10;;;4.60;;
27889;SDS011;15238;49.082;9.102;2023-06-14T03:31:05;12.10;;;4.13;;
27889;SDS011;15238;49.082;9.102;2023-06-14T03:33:06;6.50;;;4.15;;
27889;SDS011;15238;49.082;9.102;2023-06-14T03:35:07;9.85;;;4.30;;
27889;SDS011;15238;49.082;9.102;2023-06-14T03:37:07;7.85;;;4.25;;
27889;SDS011;15238;49.082;9.102;2023-06-14T03:39:08;7.68;;;4.22;;
27889;SDS011;15238;49.082;9.102;2023-06-14T03:41:09;8.75;;;4.15;;
27889;SDS011;15238;49.082;9.102;2023-06-14T03:43:09;6.22;;;3.92;;
27889;SDS011;15238;49.082;9.102;2023-06-14T03:45:10;5.72;;;4.18;;
27889;SDS011;15238;49.082;9.102;2023-06-14T03:47:10;7.22;;;4.38;;
27889;SDS011;15238;49.082;9.102;2023-06-14T03:49:11;4.93;;;3.70;;
27889;SDS011;15238;49.082;9.102;2023-06-14T03:51:12;6.53;;;4.28;;
27889;SDS011;15238;49.082;9.102;2023-06-14T03:53:13;5.65;;;4.00;;
27889;SDS011;15238;49.082;9.102;2023-06-14T03:55:13;10.75;;;4.13;;
27889;SDS011;15238;49.082;9.102;2023-06-14T03:57:16;6.93;;;4.03;;
27889;SDS011;15238;49.082;9.102;2023-06-14T03:59:16;6.30;;;3.95;;
27889;SDS011;15238;49.082;9.102;2023-06-14T04:01:17;5.57;;;4.18;;
27889;SDS011;15238;49.082;9.102;2023-06-14T04:03:17;8.20;;;4.20;;
27889;SDS011;15238;49.082;9.102;2023-06-14T04:05:19;8.88;;;5.28;;
27889;SDS011;15238;49.082;9.102;2023-06-14T04:07:20;5.07;;;3.88;;
27889;SDS011;15238;49.082;9.102;2023-06-14T04:09:21;5.82;;;3.70;;
27889;SDS011;15238;49.082;9.102;2023-06-14T04:11:21;4.63;;;3.85;;
27889;SDS011;15238;49.082;9.102;2023-06-14T04:13:21;8.13;;;4.35;;
27889;SDS011;15238;49.082;9.102;2023-06-14T04:15:22;9.98;;;3.90;;
27889;SDS011;15238;49.082;9.102;2023-06-14T04:17:23;7.30;;;4.18;;
27889;SDS011;15238;49.082;9.102;2023-06-14T04:19:23;7.45;;;3.90;;
27889;SDS011;15238;49.082;9.102;2023-06-14T04:21:24;5.32;;;4.03;;
27889;SDS011;15238;49.082;9.102;2023-06-14T04:23:25;9.00;;;4.20;;
27889;SDS011;15238;49.082;9.102;2023-06-14T04:25:28;5.70;;;4.10;;
27889;SDS011;15238;49.082;9.102;2023-06-14T04:27:30;7.45;;;4.43;;
27889;SDS011;15238;49.082;9.102;2023-06-14T04:29:34;5.00;;;3.67;;
27889;SDS011;15238;49.082;9.102;2023-06-14T04:31:34;7.35;;;4.22;;
27889;SDS011;15238;49.082;9.102;2023-06-14T04:33:37;6.18;;;4.10;;
27889;SDS011;15238;49.082;9.102;2023-06-14T04:35:46;6.22;;;3.97;;
27889;SDS011;15238;49.082;9.102;2023-06-14T04:37:47;6.22;;;3.95;;
27889;SDS011;15238;49.082;9.102;2023-06-14T04:39:48;8.68;;;4.18;;
27889;SDS011;15238;49.082;9.102;2023-06-14T04:41:49;9.38;;;3.97;;
27889;SDS011;15238;49.082;9.102;2023-06-14T04:43:57;6.18;;;4.00;;
27889;SDS011;15238;49.082;9.102;2023-06-14T04:46:01;7.32;;;3.90;;
27889;SDS011;15238;49.082;9.102;2023-06-14T04:48:03;7.72;;;4.15;;
27889;SDS011;15238;49.082;9.102;2023-06-14T04:50:04;6.97;;;3.70;;
27889;SDS011;15238;49.082;9.102;2023-06-14T04:52:05;5.68;;;4.15;;
27889;SDS011;15238;49.082;9.102;2023-06-14T04:54:06;11.10;;;4.32;;
27889;SDS011;15238;49.082;9.102;2023-06-14T04:56:10;10.55;;;4.28;;
27889;SDS011;15238;49.082;9.102;2023-06-14T04:58:11;10.65;;;4.35;;
27889;SDS011;15238;49.082;9.102;2023-06-14T05:00:12;5.45;;;3.92;;
27889;SDS011;15238;49.082;9.102;2023-06-14T05:02:14;7.43;;;4.28;;
27889;SDS011;15238;49.082;9.102;2023-06-14T05:04:14;6.57;;;4.30;;
27889;SDS011;15238;49.082;9.102;2023-06-14T05:06:19;7.45;;;4.15;;
27889;SDS011;15238;49.082;9.102;2023-06-14T05:08:20;7.03;;;4.57;;
27889;SDS011;15238;49.082;9.102;2023-06-14T05:10:24;10.18;;;4.47;;
27889;SDS011;15238;49.082;9.102;2023-06-14T05:12:24;5.93;;;4.28;;
27889;SDS011;15238;49.082;9.102;2023-06-14T05:14:25;5.72;;;4.18;;
27889;SDS011;15238;49.082;9.102;2023-06-14T05:16:26;8.75;;;4.80;;
27889;SDS011;15238;49.082;9.102;2023-06-14T05:18:27;9.10;;;4.65;;
27889;SDS011;15238;49.082;9.102;2023-06-14T05:20:28;8.43;;;4.50;;
27889;SDS011;15238;49.082;9.102;2023-06-14T05:22:28;6.32;;;4.13;;
27889;SDS011;15238;49.082;9.102;2023-06-14T05:24:29;8.45;;;4.03;;
27889;SDS011;15238;49.082;9.102;2023-06-14T05:26:32;6.93;;;4.10;;
27889;SDS011;15238;49.082;9.102;2023-06-14T05:28:33;10.85;;;3.88;;
27889;SDS011;15238;49.082;9.102;2023-06-14T05:30:34;11.77;;;4.47;;
27889;SDS011;15238;49.082;9.102;2023-06-14T05:32:34;11.77;;;4.30;;
27889;SDS011;15238;49.082;9.102;2023-06-14T05:34:35;8.93;;;4.05;;
27889;SDS011;15238;49.082;9.102;2023-06-14T05:36:35;8.40;;;3.90;;
27889;SDS011;15238;49.082;9.102;2023-06-14T05:38:36;13.48;;;4.63;;
27889;SDS011;15238;49.082;9.102;2023-06-14T05:40:37;10.40;;;4.53;;
27889;SDS011;15238;49.082;9.102;2023-06-14T05:42:37;6.88;;;3.55;;
27889;SDS011;15238;49.082;9.102;2023-06-14T05:44:38;5.80;;;3.63;;
27889;SDS011;15238;49.082;9.102;2023-06-14T05:46:38;5.25;;;3.50;;
27889;SDS011;15238;49.082;9.102;2023-06-14T05:48:40;5.70;;;3.28;;
27889;SDS011;15238;49.082;9.102;2023-06-14T05:50:40;6.70;;;3.90;;
27889;SDS011;15238;49.082;9.102;2023-06-14T05:52:40;10.30;;;4.10;;
27889;SDS011;15238;49.082;9.102;2023-06-14T05:54:41;7.82;;;3.72;;
27889;SDS011;15238;49.082;9.102;2023-06-14T05:56:42;7.85;;;3.75;;
27889;SDS011;15238;49.082;9.102;2023-06-14T05:58:42;5.82;;;3.83;;
27889;SDS011;15238;49.082;9.102;2023-06-14T06:00:42;7.07;;;4.38;;
27889;SDS011;15238;49.082;9.102;2023-06-14T06:02:43;7.32;;;3.72;;
27889;SDS011;15238;49.082;9.102;2023-06-14T06:04:46;7.82;;;3.50;;
27889;SDS011;15238;49.082;9.102;2023-06-14T06:06:46;8.43;;;3.63;;
27889;SDS011;15238;49.082;9.102;2023-06-14T06:08:47;5.68;;;4.05;;
27889;SDS011;15238;49.082;9.102;2023-06-14T06:10:48;5.10;;;3.60;;
27889;SDS011;15238;49.082;9.102;2023-06-14T06:12:48;4.82;;;3.38;;
27889;SDS011;15238;49.082;9.102;2023-06-14T06:14:52;9.20;;;3.85;;
27889;SDS011;15238;49.082;9.102;2023-06-14T06:16:53;7.10;;;3.60;;
27889;SDS011;15238;49.082;9.102;2023-06-14T06:18:53;5.50;;;3.40;;
27889;SDS011;15238;49.082;9.102;2023-06-14T06:20:54;6.05;;;3.20;;
27889;SDS011;15238;49.082;9.102;2023-06-14T06:22:55;8.50;;;3.40;;
27889;SDS011;15238;49.082;9.102;2023-06-14T06:24:56;7.00;;;3.40;;
27889;SDS011;15238;49.082;9.102;2023-06-14T06:26:57;6.03;;;3.20;;
27889;SDS011;15238;49.082;9.102;2023-06-14T06:29:00;8.90;;;3.65;;
27889;SDS011;15238;49.082;9.102;2023-06-14T06:31:01;5.88;;;3.55;;
27889;SDS011;15238;49.082;9.102;2023-06-14T06:33:03;7.25;;;3.70;;
27889;SDS011;15238;49.082;9.102;2023-06-14T06:35:03;8.23;;;3.70;;
27889;SDS011;15238;49.082;9.102;2023-06-14T06:37:06;7.47;;;3.45;;
27889;SDS011;15238;49.082;9.102;2023-06-14T06:39:07;5.82;;;3.33;;
27889;SDS011;15238;49.082;9.102;2023-06-14T06:41:10;11.38;;;3.65;;
27889;SDS011;15238;49.082;9.102;2023-06-14T06:43:10;6.97;;;3.67;;
27889;SDS011;15238;49.082;9.102;2023-06-14T06:45:13;10.45;;;3.83;;
27889;SDS011;15238;49.082;9.102;2023-06-14T06:47:14;9.18;;;3.63;;
27889;SDS011;15238;49.082;9.102;2023-06-14T06:49:14;4.57;;;3.70;;
27889;SDS011;15238;49.082;9.102;2023-06-14T06:51:15;5.25;;;3.30;;
27889;SDS011;15238;49.082;9.102;2023-06-14T06:53:15;8.57;;;3.40;;
27889;SDS011;15238;49.082;9.102;2023-06-14T06:55:18;6.47;;;3.17;;
27889;SDS011;15238;49.082;9.102;2023-06-14T06:57:18;6.43;;;3.85;;
27889;SDS011;15238;49.082;9.102;2023-06-14T06:59:19;8.52;;;3.97;;
27889;SDS011;15238;49.082;9.102;2023-06-14T07:01:20;11.13;;;4.22;;
27889;SDS011;15238;49.082;9.102;2023-06-14T07:03:21;6.95;;;3.50;;
27889;SDS011;15238;49.082;9.102;2023-06-14T07:05:22;4.43;;;3.28;;
27889;SDS011;15238;49.082;9.102;2023-06-14T07:07:23;5.55;;;3.60;;
27889;SDS011;15238;49.082;9.102;2023-06-14T07:09:23;6.53;;;3.88;;
27889;SDS011;15238;49.082;9.102;2023-06-14T07:11:24;8.52;;;3.65;;
27889;SDS011;15238;49.082;9.102;2023-06-14T07:13:25;8.85;;;3.50;;
27889;SDS011;15238;49.082;9.102;2023-06-14T07:15:25;7.57;;;3.67;;
27889;SDS011;15238;49.082;9.102;2023-06-14T07:17:26;7.25;;;3.53;;
27889;SDS011;15238;49.082;9.102;2023-06-14T07:19:26;5.10;;;3.35;;
27889;SDS011;15238;49.082;9.102;2023-06-14T07:21:27;5.90;;;3.05;;
27889;SDS011;15238;49.082;9.102;2023-06-14T07:23:27;6.63;;;3.28;;
27889;SDS011;15238;49.082;9.102;2023-06-14T07:25:28;6.20;;;3.22;;
27889;SDS011;15238;49.082;9.102;2023-06-14T07:27:28;5.68;;;3.53;;
27889;SDS011;15238;49.082;9.102;2023-06-14T07:29:29;10.98;;;3.60;;
27889;SDS011;15238;49.082;9.102;2023-06-14T07:31:29;6.13;;;3.47;;
27889;SDS011;15238;49.082;9.102;2023-06-14T07:33:30;6.65;;;3.28;;
27889;SDS011;15238;49.082;9.102;2023-06-14T07:35:30;7.75;;;3.33;;
27889;SDS011;15238;49.082;9.102;2023-06-14T07:37:31;4.90;;;3.05;;
27889;SDS011;15238;49.082;9.102;2023-06-14T07:39:32;7.10;;;3.35;;
27889;SDS011;15238;49.082;9.102;2023-06-14T07:41:32;6.10;;;3.25;;
27889;SDS011;15238;49.082;9.102;2023-06-14T07:43:33;7.10;;;3.30;;
27889;SDS011;15238;49.082;9.102;2023-06-14T07:45:33;7.22;;;3.75;;
27889;SDS011;15238;49.082;9.102;2023-06-14T07:47:34;13.10;;;4.72;;
27889;SDS011;15238;49.082;9.102;2023-06-14T07:49:34;11.20;;;2.92;;
27889;SDS011;15238;49.082;9.102;2023-06-14T07:51:35;7.00;;;3.10;;
27889;SDS011;15238;49.082;9.102;2023-06-14T07:53:35;8.95;;;3.53;;
27889;SDS011;15238;49.082;9.102;2023-06-14T07:55:36;8.43;;;3.67;;
27889;SDS011;15238;49.082;9.102;2023-06-14T07:57:37;8.63;;;3.00;;
27889;SDS011;15238;49.082;9.102;2023-06-14T07:59:38;7.32;;;3.92;;
27889;SDS011;15238;49.082;9.102;2023-06-14T08:01:38;7.70;;;3.65;;
27889;SDS011;15238;49.082;9.102;2023-06-14T08:03:39;6.60;;;3.30;;
27889;SDS011;15238;49.082;9.102;2023-06-14T08:05:40;9.20;;;3.08;;
27889;SDS011;15238;49.082;9.102;2023-06-14T08:07:40;5.60;;;3.10;;
27889;SDS011;15238;49.082;9.102;2023-06-14T08:09:41;5.88;;;3.13;;
27889;SDS011;15238;49.082;9.102;2023-06-14T08:11:42;6.93;;;3.25;;
27889;SDS011;15238;49.082;9.102;2023-06-14T08:13:42;3.65;;;3.03;;
27889;SDS011;15238;49.082;9.102;2023-06-14T08:15:43;7.60;;;3.30;;
27889;SDS011;15238;49.082;9.102;2023-06-14T08:17:44;5.82;;;3.22;;
27889;SDS011;15238;49.082;9.102;2023-06-14T08:19:45;6.85;;;3.05;;
27889;SDS011;15238;49.082;9.102;2023-06-14T08:21:46;6.53;;;3.20;;
27889;SDS011;15238;49.082;9.102;2023-06-14T08:23:47;4.97;;;3.22;;
27889;SDS011;15238;49.082;9.102;2023-06-14T08:25:48;10.30;;;3.05;;
27889;SDS011;15238;49.082;9.102;2023-06-14T08:27:49;12.23;;;3.33;;
27889;SDS011;15238;49.082;9.102;2023-06-14T08:29:50;8.45;;;3.80;;
27889;SDS011;15238;49.082;9.102;2023-06-14T08:31:51;7.05;;;3.42;;
27889;SDS011;15238;49.082;9.102;2023-06-14T08:33:51;6.57;;;3.08;;
27889;SDS011;15238;49.082;9.102;2023-06-14T08:35:52;3.78;;;3.03;;
27889;SDS011;15238;49.082;9.102;2023-06-14T08:37:53;8.63;;;3.15;;
27889;SDS011;15238;49.082;9.102;2023-06-14T08:39:54;5.53;;;3.50;;
27889;SDS011;15238;49.082;9.102;2023-06-14T08:41:56;5.40;;;3.38;;
27889;SDS011;15238;49.082;9.102;2023-06-14T08:43:57;6.95;;;3.40;;
27889;SDS011;15238;49.082;9.102;2023-06-14T08:46:00;9.32;;;3.40;;
27889;SDS011;15238;49.082;9.102;2023-06-14T08:48:03;9.23;;;3.42;;
27889;SDS011;15238;49.082;9.102;2023-06-14T08:50:06;7.82;;;2.83;;
27889;SDS011;15238;49.082;9.102;2023-06-14T08:52:08;5.60;;;3.30;;
27889;SDS011;15238;49.082;9.102;2023-06-14T08:54:11;6.95;;;2.90;;
27889;SDS011;15238;49.082;9.102;2023-06-14T08:56:12;6.43;;;3.55;;
27889;SDS011;15238;49.082;9.102;2023-06-14T08:58:13;6.45;;;2.88;;
27889;SDS011;15238;49.082;9.102;2023-06-14T09:00:14;4.93;;;2.78;;
27889;SDS011;15238;49.082;9.102;2023-06-14T09:02:16;6.50;;;3.17;;
27889;SDS011;15238;49.082;9.102;2023-06-14T09:04:18;7.45;;;2.63;;
27889;SDS011;15238;49.082;9.102;2023-06-14T09:06:19;4.28;;;2.80;;
27889;SDS011;15238;49.082;9.102;2023-06-14T09:08:22;8.70;;;3.13;;
27889;SDS011;15238;49.082;9.102;2023-06-14T09:10:23;4.45;;;2.92;;
27889;SDS011;15238;49.082;9.102;2023-06-14T09:12:27;4.55;;;2.80;;
27889;SDS011;15238;49.082;9.102;2023-06-14T09:14:28;5.07;;;3.13;;
27889;SDS011;15238;49.082;9.102;2023-06-14T09:16:28;6.60;;;2.80;;
27889;SDS011;15238;49.082;9.102;2023-06-14T09:18:38;5.60;;;2.95;;
27889;SDS011;15238;49.082;9.102;2023-06-14T09:20:47;6.45;;;3.20;;
27889;SDS011;15238;49.082;9.102;2023-06-14T09:22:48;3.30;;;3.00;;
27889;SDS011;15238;49.082;9.102;2023-06-14T09:24:49;6.43;;;3.00;;
27889;SDS011;15238;49.082;9.102;2023-06-14T09:26:53;4.90;;;3.55;;
27889;SDS011;15238;49.082;9.102;2023-06-14T09:28:53;9.93;;;3.55;;
27889;SDS011;15238;49.082;9.102;2023-06-14T09:30:56;6.05;;;3.08;;
27889;SDS011;15238;49.082;9.102;2023-06-14T09:32:57;5.72;;;3.15;;
27889;SDS011;15238;49.082;9.102;2023-06-14T09:34:57;7.80;;;2.78;;
27889;SDS011;15238;49.082;9.102;2023-06-14T09:36:58;6.07;;;3.15;;
27889;SDS011;15238;49.082;9.102;2023-06-14T09:38:59;3.17;;;2.88;;
27889;SDS011;15238;49.082;9.102;2023-06-14T09:41:04;4.50;;;3.00;;
27889;SDS011;15238;49.082;9.102;2023-06-14T09:43:05;5.03;;;2.97;;
27889;SDS011;15238;49.082;9.102;2023-06-14T09:45:10;3.90;;;2.95;;
27889;SDS011;15238;49.082;9.102;2023-06-14T09:47:12;8.27;;;3.35;;
27889;SDS011;15238;49.082;9.102;2023-06-14T09:49:13;6.47;;;3.03;;
27889;SDS011;15238;49.082;9.102;2023-06-14T09:51:13;3.17;;;2.50;;
27889;SDS011;15238;49.082;9.102;2023-06-14T09:53:19;5.82;;;2.55;;
27889;SDS011;15238;49.082;9.102;2023-06-14T09:55:22;13.05;;;5.07;;
27889;SDS011;15238;49.082;9.102;2023-06-14T09:57:26;5.93;;;2.90;;
27889;SDS011;15238;49.082;9.102;2023-06-14T09:59:31;4.45;;;2.80;;
27889;SDS011;15238;49.082;9.102;2023-06-14T10:01:34;5.43;;;2.67;;
27889;SDS011;15238;49.082;9.102;2023-06-14T10:03:35;9.10;;;3.15;;
27889;SDS011;15238;49.082;9.102;2023-06-14T10:05:37;8.18;;;3.38;;
27889;SDS011;15238;49.082;9.102;2023-06-14T10:07:42;5.07;;;3.00;;
27889;SDS011;15238;49.082;9.102;2023-06-14T10:09:53;4.03;;;2.72;;
27889;SDS011;15238;49.082;9.102;2023-06-14T10:11:54;3.70;;;2.70;;
27889;SDS011;15238;49.082;9.102;2023-06-14T10:13:56;5.80;;;2.80;;
27889;SDS011;15238;49.082;9.102;2023-06-14T10:16:00;4.63;;;2.80;;
27889;SDS011;15238;49.082;9.102;2023-06-14T10:18:19;6.82;;;2.35;;
27889;SDS011;15238;49.082;9.102;2023-06-14T10:20:28;3.63;;;1.90;;
27889;SDS011;15238;49.082;9.102;2023-06-14T10:24:49;7.38;;;2.45;;
27889;SDS011;15238;49.082;9.102;2023-06-14T10:26:51;8.05;;;2.95;;
27889;SDS011;15238;49.082;9.102;2023-06-14T10:31:08;3.58;;;2.10;;
27889;SDS011;15238;49.082;9.102;2023-06-14T10:33:10;4.78;;;2.65;;
27889;SDS011;15238;49.082;9.102;2023-06-14T10:35:16;2.42;;;2.20;;
27889;SDS011;15238;49.082;9.102;2023-06-14T10:37:16;3.10;;;2.25;;
27889;SDS011;15238;49.082;9.102;2023-06-14T10:39:17;8.10;;;2.53;;
27889;SDS011;15238;49.082;9.102;2023-06-14T10:41:18;3.25;;;2.50;;
27889;SDS011;15238;49.082;9.102;2023-06-14T10:43:22;3.78;;;2.60;;
27889;SDS011;15238;49.082;9.102;2023-06-14T10:45:24;9.90;;;2.75;;
27889;SDS011;15238;49.082;9.102;2023-06-14T10:47:31;6.32;;;2.50;;
27889;SDS011;15238;49.082;9.102;2023-06-14T10:51:51;12.02;;;2.90;;
27889;SDS011;15238;49.082;9.102;2023-06-14T10:53:52;4.10;;;2.70;;
27889;SDS011;15238;49.082;9.102;2023-06-14T10:56:05;6.10;;;2.78;;
27889;SDS011;15238;49.082;9.102;2023-06-14T10:58:07;5.90;;;2.73;;
27889;SDS011;15238;49.082;9.102;2023-06-14T11:00:08;3.13;;;2.35;;
27889;SDS011;15238;49.082;9.102;2023-06-14T11:06:48;4.63;;;2.63;;
27889;SDS011;15238;49.082;9.102;2023-06-14T11:09:04;3.85;;;2.78;;
27889;SDS011;15238;49.082;9.102;2023-06-14T11:11:09;5.47;;;2.75;;
27889;SDS011;15238;49.082;9.102;2023-06-14T11:13:11;7.00;;;2.47;;
27889;SDS011;15238;49.082;9.102;2023-06-14T11:15:11;5.07;;;2.60;;
27889;SDS011;15238;49.082;9.102;2023-06-14T11:17:12;3.50;;;2.60;;
27889;SDS011;15238;49.082;9.102;2023-06-14T11:19:13;3.55;;;2.50;;
27889;SDS011;15238;49.082;9.102;2023-06-14T11:21:17;3.10;;;2.33;;
27889;SDS011;15238;49.082;9.102;2023-06-14T11:23:21;4.47;;;2.45;;
27889;SDS011;15238;49.082;9.102;2023-06-14T11:25:22;7.18;;;2.38;;
27889;SDS011;15238;49.082;9.102;2023-06-14T11:27:23;4.47;;;2.47;;
27889;SDS011;15238;49.082;9.102;2023-06-14T11:29:28;5.13;;;2.80;;
27889;SDS011;15238;49.082;9.102;2023-06-14T11:31:29;5.93;;;2.35;;
27889;SDS011;15238;49.082;9.102;2023-06-14T11:33:30;7.10;;;2.75;;
27889;SDS011;15238;49.082;9.102;2023-06-14T11:35:30;4.10;;;2.45;;
27889;SDS011;15238;49.082;9.102;2023-06-14T11:37:31;6.32;;;2.60;;
27889;SDS011;15238;49.082;9.102;2023-06-14T11:39:37;3.35;;;2.33;;
27889;SDS011;15238;49.082;9.102;2023-06-14T11:41:43;8.02;;;2.35;;
27889;SDS011;15238;49.082;9.102;2023-06-14T11:43:45;7.28;;;3.10;;
27889;SDS011;15238;49.082;9.102;2023-06-14T11:45:47;2.90;;;2.60;;
27889;SDS011;15238;49.082;9.102;2023-06-14T11:47:49;6.97;;;2.90;;
27889;SDS011;15238;49.082;9.102;2023-06-14T11:49:49;3.63;;;2.53;;
27889;SDS011;15238;49.082;9.102;2023-06-14T11:51:50;5.28;;;3.10;;
27889;SDS011;15238;49.082;9.102;2023-06-14T11:53:52;5.15;;;2.97;;
27889;SDS011;15238;49.082;9.102;2023-06-14T11:55:53;4.03;;;2.70;;
27889;SDS011;15238;49.082;9.102;2023-06-14T11:57:54;5.55;;;2.47;;
27889;SDS011;15238;49.082;9.102;2023-06-14T11:59:55;3.95;;;2.42;;
27889;SDS011;15238;49.082;9.102;2023-06-14T12:01:55;2.72;;;2.35;;
27889;SDS011;15238;49.082;9.102;2023-06-14T12:03:56;4.10;;;2.85;;
27889;SDS011;15238;49.082;9.102;2023-06-14T12:06:06;4.05;;;2.92;;
27889;SDS011;15238;49.082;9.102;2023-06-14T12:08:08;3.90;;;2.38;;
27889;SDS011;15238;49.082;9.102;2023-06-14T12:10:09;6.18;;;2.60;;
27889;SDS011;15238;49.082;9.102;2023-06-14T12:12:11;3.65;;;2.60;;
27889;SDS011;15238;49.082;9.102;2023-06-14T12:14:12;4.68;;;2.70;;
27889;SDS011;15238;49.082;9.102;2023-06-14T12:16:13;4.47;;;2.40;;
27889;SDS011;15238;49.082;9.102;2023-06-14T12:18:13;4.38;;;2.92;;
27889;SDS011;15238;49.082;9.102;2023-06-14T12:20:14;3.38;;;2.92;;
27889;SDS011;15238;49.082;9.102;2023-06-14T12:22:16;4.68;;;2.70;;
27889;SDS011;15238;49.082;9.102;2023-06-14T12:24:17;4.65;;;2.55;;
27889;SDS011;15238;49.082;9.102;2023-06-14T12:26:18;4.78;;;2.53;;